Latest Weather Observations for Swan Hill

IDN60801

Issued at 9:03 am EDT Friday 9 December 2022 (issued every 10 minutes, with the page automatically refreshed every 10 minutes)

About weather observations | Map of weather stations | Latest weather observations for NSW | Other Formats
Station Details ID: 077094 Name: SWAN HILL AERODROME Lat: -35.38 Lon: 143.54 Height: 71.0 m
Data from the previous 72 hours. | See also: Recent months at Swan Hill
Date/Time
EDT
Temp
°C
App
Temp
°C
Dew
Point
°C
Rel
Hum
%
Delta-T
°C
Wind Press
QNH
hPa
Press
MSL
hPa
Rain since
9am
mm
Dir  Spd
km/h
Gust
km/h
Spd
kts
Gust
kts
09/09:00am 13.8 9.1 3.3 49 4.7 SE 17 24 9 13 1017.9 1017.7 0.0
09/08:30am 12.5 7.5 3.7 55 4.0 SE 19 30 10 16 1017.6 1017.4 0.0
09/08:00am 11.6 7.4 3.6 58 3.5 SE 15 20 8 11 1017.4 1017.2 0.0
09/07:30am 10.3 6.5 4.0 65 2.8 SE 13 20 7 11 1017.1 1016.9 0.0
09/07:00am 7.5 4.8 3.9 78 1.6 SSE 7 11 4 6 1016.8 1016.6 0.0
09/06:30am 5.6 3.0 3.4 86 0.9 SE 6 9 3 5 1016.5 1016.3 0.0
09/06:00am 5.6 3.0 3.1 84 1.0 SE 6 7 3 4 1016.4 1016.2 0.0
09/05:30am 5.9 3.3 3.1 82 1.2 SE 6 7 3 4 1016.3 1016.1 0.0
09/05:00am 6.3 3.5 3.1 80 1.3 SSE 7 9 4 5 1016.2 1016.0 0.0
09/04:30am 6.7 3.5 3.1 78 1.5 SSE 9 13 5 7 1016.1 1015.9 0.0
09/04:00am 7.1 3.9 3.0 75 1.7 SSE 9 13 5 7 1016.2 1016.0 0.0
09/03:30am 7.5 4.3 3.0 73 1.9 SSE 9 13 5 7 1016.3 1016.1 0.0
09/03:00am 7.8 4.5 2.7 70 2.1 SSE 9 11 5 6 1016.4 1016.2 0.0
09/02:30am 8.6 4.9 2.6 66 2.5 SSE 11 17 6 9 1016.5 1016.3 0.0
09/02:00am 9.2 5.5 2.5 63 2.8 SSE 11 17 6 9 1016.6 1016.4 0.0
09/01:30am 9.5 5.0 2.1 60 3.1 SSE 15 22 8 12 1016.7 1016.5 0.0
09/01:00am 10.2 6.0 1.8 56 3.5 SSE 13 17 7 9 1017.0 1016.8 0.0
09/12:30am 10.4 6.6 1.5 54 3.7 S 11 19 6 10 1017.1 1016.9 0.0
09/12:00am 10.9 7.4 1.2 51 4.1 SSE 9 13 5 7 1017.0 1016.8 0.0
 
Date/Time
EDT
Temp
°C
App
Temp
°C
Dew
Point
°C
Rel
Hum
%
Delta-T
°C
Wind Press
QNH
hPa
Press
MSL
hPa
Rain since
9am
mm
Dir  Spd
km/h
Gust
km/h
Spd
kts
Gust
kts
08/11:30pm 11.7 7.8 1.1 48 4.5 SSE 11 15 6 8 1017.0 1016.8 0.0
08/11:00pm 12.5 8.2 1.2 46 4.8 S 13 17 7 9 1016.6 1016.4 0.0
08/10:30pm 12.9 9.1 1.6 46 4.9 SSW 11 17 6 9 1016.8 1016.6 0.0
08/10:00pm 13.5 9.6 1.2 43 5.3 SSW 11 19 6 10 1016.2 1016.0 0.0
08/09:30pm 14.4 10.1 1.0 40 5.8 S 13 17 7 9 1015.8 1015.6 0.0
08/09:00pm 15.4 10.6 0.4 36 6.4 S 15 24 8 13 1015.3 1015.1 0.0
08/08:30pm 16.5 11.3 0.2 33 7.0 S 17 30 9 16 1015.0 1014.8 0.0
08/08:00pm 17.9 11.8 0.1 30 7.8 SSW 22 32 12 17 1015.1 1014.9 0.0
08/07:30pm 18.9 13.3 0.0 28 8.3 SSW 19 28 10 15 1014.7 1014.5 0.0
08/07:00pm 19.5 13.7 0.0 27 8.6 S 20 46 11 25 1014.2 1014.0 0.0
08/06:30pm 19.9 13.6 -0.7 25 9.0 S 22 35 12 19 1013.8 1013.6 0.0
08/06:00pm 20.7 14.8 -1.1 23 9.5 SSW 20 33 11 18 1013.6 1013.4 0.0
08/05:30pm 20.5 14.2 -1.3 23 9.5 SSW 22 39 12 21 1013.5 1013.3 0.0
08/05:00pm 20.4 14.4 -1.4 23 9.4 S 20 35 11 19 1013.6 1013.4 0.0
08/04:37pm 21.3 13.8 -1.3 22 9.9 SSW 28 46 15 25 1013.6 1013.4 0.0
08/04:30pm 20.2 13.9 -1.0 24 9.2 SSW 22 33 12 18 1013.6 1013.4 0.0
08/04:00pm 20.0 13.6 -1.7 23 9.3 SSW 22 44 12 24 1013.9 1013.7 0.0
08/03:30pm 19.4 13.5 -0.6 26 8.7 SSW 20 39 11 21 1014.3 1014.1 0.0
08/03:00pm 19.2 12.6 -0.7 26 8.6 SSW 24 37 13 20 1014.6 1014.4 0.0
08/02:30pm 19.5 13.0 0.0 27 8.6 SSW 24 35 13 19 1014.8 1014.6 0.0
08/02:00pm 18.9 13.3 0.0 28 8.3 SSW 19 28 10 15 1014.9 1014.7 0.0
08/01:30pm 18.4 11.8 -0.4 28 8.1 SSW 24 44 13 24 1015.4 1015.2 0.0
08/01:00pm 17.9 11.8 0.1 30 7.8 SSW 22 39 12 21 1015.6 1015.4 0.0
08/12:30pm 16.6 9.7 -0.1 32 7.2 SSW 26 46 14 25 1015.7 1015.5 0.0
08/12:22pm 17.0 10.1 0.2 32 7.3 SSW 26 46 14 25 1015.7 1015.5 0.0
08/12:00pm 16.4 9.9 0.5 34 6.9 SSW 24 39 13 21 1015.9 1015.7 0.0
08/11:30am 16.0 9.5 0.2 34 6.8 SSW 24 33 13 18 1016.1 1015.9 0.0
08/11:00am 15.5 9.5 0.9 37 6.3 SSW 22 32 12 17 1016.1 1015.9 0.0
08/10:30am 14.3 7.9 1.2 41 5.7 SSW 24 33 13 18 1016.2 1016.0 0.0
08/10:00am 13.7 7.4 1.4 43 5.3 SSW 24 37 13 20 1016.3 1016.1 0.0
08/09:30am 13.6 8.1 1.6 44 5.2 SSW 20 33 11 18 1016.3 1016.1 0.0
08/09:00am 12.8 6.5 1.8 47 4.7 SW 24 35 13 19 1016.1 1015.9 0.0
08/08:30am 12.2 6.9 3.2 54 4.0 SW 20 32 11 17 1015.8 1015.6 0.0
08/08:00am 10.6 5.0 3.6 62 3.1 SW 22 30 12 16 1015.3 1015.1 0.0
08/07:30am 9.3 4.1 3.7 68 2.4 SW 20 28 11 15 1014.8 1014.6 0.0
08/07:00am 8.3 3.3 3.8 73 2.0 SW 19 26 10 14 1014.5 1014.3 0.0
08/06:30am 7.2 2.5 3.3 76 1.7 SW 17 20 9 11 1014.2 1014.0 0.0
08/06:00am 7.2 2.5 3.3 76 1.7 SW 17 20 9 11 1014.0 1013.8 0.0
08/05:30am 7.6 2.5 3.1 73 1.9 SW 19 22 10 12 1013.5 1013.3 0.0
08/05:00am 7.8 2.7 2.9 71 2.1 SW 19 24 10 13 1013.4 1013.2 0.0
08/04:30am 7.9 3.1 2.6 69 2.2 WSW 17 22 9 12 1013.3 1013.1 0.0
08/04:00am 8.4 3.2 2.2 65 2.6 SW 19 22 10 12 1013.2 1013.0 0.0
08/03:30am 8.6 3.7 2.0 63 2.8 SW 17 20 9 11 1013.3 1013.1 0.0
08/03:00am 9.4 4.5 2.0 60 3.1 SW 17 20 9 11 1013.0 1012.8 0.0
08/02:30am 9.6 5.5 2.0 59 3.2 SSW 13 17 7 9 1013.1 1012.9 0.0
08/02:00am 10.5 5.6 1.9 55 3.6 SSW 17 24 9 13 1013.0 1012.8 0.0
08/01:30am 11.2 5.7 1.7 52 4.0 SSW 20 26 11 14 1012.9 1012.7 0.0
08/01:00am 11.8 5.1 1.7 50 4.3 SW 26 39 14 21 1012.8 1012.5 0.0
08/12:30am 12.2 6.0 2.1 50 4.4 SW 24 33 13 18 1012.5 1012.2 0.0
08/12:00am 12.9 7.0 4.1 55 4.0 SW 24 33 13 18 1012.3 1012.0 0.0
 
Date/Time
EDT
Temp
°C
App
Temp
°C
Dew
Point
°C
Rel
Hum
%
Delta-T
°C
Wind Press
QNH
hPa
Press
MSL
hPa
Rain since
9am
mm
Dir  Spd
km/h
Gust
km/h
Spd
kts
Gust
kts
07/11:30pm 13.6 7.1 4.7 55 4.1 SSW 28 43 15 23 1012.0 1011.7 0.0
07/11:00pm 14.0 7.5 6.4 60 3.7 SSW 30 46 16 25 1011.7 1011.4 0.0
07/10:38pm 14.5 8.3 6.3 58 4.0 SSW 28 46 15 25 1011.2 1010.9 0.0
07/10:30pm 14.6 8.1 6.4 58 4.0 SW 30 43 16 23 1011.1 1010.8 0.0
07/10:07pm 14.9 7.9 7.0 59 3.9 SW 33 52 18 28 1010.5 1010.2 0.0
07/10:00pm 15.0 7.2 6.8 58 4.0 SW 37 52 20 28 1010.3 1010.0 0.0
07/09:50pm 15.3 8.2 6.3 55 4.4 SW 33 57 18 31 1010.1 1009.8 0.0
07/09:30pm 16.2 8.7 6.1 51 4.9 SW 35 52 19 28 1009.5 1009.2 0.0
07/09:02pm 18.5 11.1 3.9 38 6.9 SW 32 50 17 27 1008.4 1008.1 0.0
07/09:00pm 18.6 11.1 3.3 36 7.2 SW 32 46 17 25 1008.4 1008.1 0.0
07/08:30pm 19.7 12.6 1.2 29 8.4 SW 28 39 15 21 1007.7 1007.4 0.0
07/08:00pm 20.5 11.9 0.4 26 9.0 SW 35 56 19 30 1007.2 1006.9 0.0
07/07:54pm 20.9 12.7 0.2 25 9.3 SW 33 56 18 30 1007.1 1006.8 0.0
07/07:30pm 21.9 12.6 0.4 24 9.8 SW 39 56 21 30 1006.6 1006.3 0.0
07/07:00pm 22.5 13.9 0.4 23 10.1 SW 35 54 19 29 1005.8 1005.5 0.0
07/06:59pm 22.7 14.1 0.5 23 10.2 SW 35 54 19 29 1005.8 1005.5 0.0
07/06:30pm 23.3 14.7 0.4 22 10.5 SW 35 48 19 26 1005.1 1004.8 0.0
07/06:09pm 23.6 14.4 1.3 23 10.4 SW 39 57 21 31 1004.8 1004.5 0.0
07/06:00pm 23.8 14.3 2.0 24 10.4 SW 41 56 22 30 1004.7 1004.4 0.0
07/05:30pm 25.2 16.1 2.0 22 11.1 SW 39 52 21 28 1004.4 1004.1 0.0
07/05:26pm 24.0 15.0 2.2 24 10.4 SW 39 57 21 31 1004.3 1004.0 0.0
07/05:00pm 25.5 16.5 2.2 22 11.3 WSW 39 54 21 29 1004.0 1003.7 0.0
07/04:32pm 25.9 17.3 2.6 22 11.4 WSW 37 57 20 31 1003.8 1003.5 0.0
07/04:30pm 26.0 17.9 3.3 23 11.2 WSW 35 48 19 26 1003.8 1003.5 0.0
07/04:03pm 25.8 17.7 3.1 23 11.2 SW 35 54 19 29 1003.7 1003.4 0.0
07/04:00pm 25.9 17.4 3.2 23 11.2 SW 37 52 20 28 1003.7 1003.4 0.0
07/03:44pm 26.6 17.0 3.2 22 11.6 WSW 43 61 23 33 1003.8 1003.5 0.0
07/03:30pm 26.5 17.3 3.7 23 11.4 WSW 41 57 22 31 1003.8 1003.5 0.0
07/03:00pm 26.7 17.3 4.5 24 11.3 WSW 43 63 23 34 1003.6 1003.3 0.0
07/02:36pm 27.7 20.0 5.3 24 11.6 WSW 35 57 19 31 1003.5 1003.2 0.0
07/02:30pm 27.2 18.8 5.5 25 11.2 WSW 39 50 21 27 1003.7 1003.4 0.0
07/02:05pm 27.6 19.4 4.6 23 11.7 WSW 37 56 20 30 1003.6 1003.3 0.0
07/02:00pm 27.8 19.9 4.2 22 12.0 WSW 35 48 19 26 1003.7 1003.4 0.0
07/01:47pm 27.2 19.6 3.7 22 11.8 WSW 33 52 18 28 1003.7 1003.4 0.0
07/01:30pm 26.8 18.8 4.0 23 11.5 WSW 35 50 19 27 1003.7 1003.4 0.0
07/01:14pm 26.8 19.3 4.6 24 11.3 WSW 33 52 18 28 1003.7 1003.4 0.0
07/01:00pm 27.5 19.7 5.1 24 11.6 W 35 48 19 26 1003.5 1003.2 0.0
07/12:30pm 27.7 20.8 4.7 23 11.8 WSW 30 50 16 27 1003.8 1003.5 0.0
07/12:23pm 28.1 21.7 5.0 23 11.9 W 28 50 15 27 1003.6 1003.3 0.0
07/12:00pm 26.7 20.6 2.6 21 11.9 W 24 32 13 17 1004.0 1003.7 0.0
07/11:30am 26.9 20.7 2.1 20 12.1 WSW 24 39 13 21 1004.2 1003.9 0.0
07/11:00am 26.3 19.9 0.9 19 12.1 W 24 35 13 19 1004.1 1003.8 0.0
07/10:30am 25.8 19.3 2.5 22 11.3 W 26 41 14 22 1004.1 1003.8 0.0
07/10:00am 24.9 19.6 3.0 24 10.7 W 20 28 11 15 1004.3 1004.0 0.0
07/09:30am 24.5 19.9 3.8 26 10.2 NW 17 22 9 12 1004.4 1004.1 0.0
07/09:00am 22.0 18.4 5.0 33 8.5 NNW 13 17 7 9 1004.6 1004.3 0.0
07/08:30am 20.4 17.3 7.1 42 6.8 NNW 13 17 7 9 1004.6 1004.3 0.0
07/08:00am 18.9 16.4 6.7 45 6.1 NNW 9 11 5 6 1004.5 1004.2 0.0
07/07:30am 17.3 15.5 7.1 51 5.1 NNW 6 7 3 4 1004.4 1004.1 0.0
07/07:00am 16.1 13.5 7.6 57 4.3 NNW 11 11 6 6 1004.1 1003.8 0.0
07/06:30am 14.4 12.5 7.7 64 3.3 NNW 7 9 4 5 1003.9 1003.6 0.0
07/06:00am 13.3 11.1 6.4 63 3.3 NNW 7 9 4 5 1003.6 1003.3 0.0
07/05:30am 12.9 10.7 6.0 63 3.3 NNW 7 9 4 5 1003.1 1002.9 0.0
07/05:00am 12.8 10.5 5.5 61 3.4 NNW 7 9 4 5 1003.0 1002.8 0.0
07/04:30am 12.8 11.1 5.7 62 3.3 NNW 4 6 2 3 1003.2 1003.0 0.0
07/04:00am 14.2 12.1 5.8 57 4.0 NNW 6 7 3 4 1003.5 1003.2 0.0
07/03:30am 14.6 12.2 5.1 53 4.5 NNW 7 9 4 5 1003.7 1003.4 0.0
07/03:00am 14.3 12.9 5.7 56 4.1 NNW 2 6 1 3 1004.0 1003.7 0.0
07/02:30am 14.8 13.8 5.6 54 4.4 CALM 0 0 0 0 1004.3 1004.0 0.0
07/02:00am 14.6 12.8 5.4 54 4.4 NNW 4 6 2 3 1004.6 1004.3 0.0
07/01:30am 14.6 12.3 4.6 51 4.7 NNW 6 7 3 4 1004.9 1004.6 0.0
07/01:00am 15.5 12.8 3.6 45 5.5 NNW 7 7 4 4 1005.3 1005.0 0.0
07/12:30am 15.0 12.9 5.8 54 4.4 NNW 6 7 3 4 1005.4 1005.1 0.0
07/12:00am 15.2 13.1 5.7 53 4.6 NNW 6 7 3 4 1005.7 1005.4 0.0
 
Date/Time
EDT
Temp
°C
App
Temp
°C
Dew
Point
°C
Rel
Hum
%
Delta-T
°C
Wind Press
QNH
hPa
Press
MSL
hPa
Rain since
9am
mm
Dir  Spd
km/h
Gust
km/h
Spd
kts
Gust
kts
06/11:30pm 15.3 12.3 6.1 54 4.4 NNW 11 13 6 7 1006.1 1005.8 0.0
06/11:00pm 16.2 12.8 5.8 50 5.0 NNW 13 13 7 7 1006.2 1005.9 0.0
06/10:30pm 17.2 13.6 4.9 44 5.9 NNW 13 17 7 9 1006.5 1006.2 0.0
06/10:00pm 16.9 13.5 3.9 42 6.1 NW 11 13 6 7 1006.3 1006.0 0.0
06/09:30pm 17.8 14.5 2.2 35 7.1 NW 9 9 5 5 1006.2 1005.9 0.0
06/09:00pm 19.8 16.0 1.7 30 8.3 WNW 11 13 6 7 1006.3 1006.0 0.0
06/08:30pm 21.6 16.8 0.2 24 9.6 WNW 15 17 8 9 1006.5 1006.2 0.0
06/08:00pm 23.1 18.1 -1.1 20 10.8 WNW 15 20 8 11 1006.2 1005.9 0.0
06/07:30pm 25.3 19.9 -1.5 17 12.1 WNW 17 20 9 11 1006.0 1005.7 0.0
06/07:00pm 25.4 19.6 -1.4 17 12.1 WNW 19 24 10 13 1005.8 1005.5 0.0
06/06:30pm 26.2 20.3 -2.4 15 12.7 W 19 24 10 13 1005.9 1005.6 0.0
06/06:00pm 26.4 20.6 -1.4 16 12.7 W 19 26 10 14 1006.1 1005.8 0.0
06/05:30pm 26.5 21.2 -0.5 17 12.5 NW 17 28 9 15 1006.0 1005.7 0.0
06/05:00pm 26.5 20.5 -1.3 16 12.7 NW 20 26 11 14 1006.3 1006.0 0.0
06/04:30pm 27.0 22.4 1.4 19 12.3 NW 15 28 8 15 1006.6 1006.3 0.0
06/04:00pm 26.2 22.6 0.8 19 12.0 SW 9 20 5 11 1007.1 1006.8 0.0
06/03:30pm 25.7 21.4 1.1 20 11.6 SW 13 22 7 12 1007.4 1007.1 0.0
06/03:00pm 26.7 22.5 1.9 20 12.0 W 13 26 7 14 1007.8 1007.5 0.0
06/02:30pm 25.4 21.7 2.2 22 11.2 WNW 11 19 6 10 1008.3 1008.0 0.0
06/02:00pm 24.6 21.9 2.7 24 10.6 W 6 17 3 9 1008.6 1008.3 0.0
06/01:30pm 24.1 20.7 4.0 27 9.9 W 11 22 6 12 1009.1 1008.8 0.0
06/01:00pm 24.0 21.9 6.7 33 9.0 NNW 7 13 4 7 1009.5 1009.2 0.0
06/12:30pm 22.0 19.1 6.7 37 7.8 NE 11 17 6 9 1009.8 1009.5 0.0
06/12:00pm 21.8 20.1 8.3 42 7.1 NNE 7 13 4 7 1009.9 1009.6 0.0
06/11:30am 20.3 17.8 6.6 41 6.9 S 9 15 5 8 1010.2 1009.9 0.0
06/11:00am 20.4 18.2 7.7 44 6.6 S 9 17 5 9 1010.6 1010.3 0.0
06/10:30am 19.3 17.1 7.7 47 6.0 SE 9 15 5 8 1010.9 1010.6 0.0
06/10:00am 18.3 15.8 8.0 51 5.3 SSE 11 19 6 10 1011.2 1010.9 0.0
06/09:30am 17.3 14.3 7.9 54 4.8 SSE 13 20 7 11 1011.4 1011.1 0.0

Other formats

Comma delimited format used in spreadsheet applications
http://www.bom.gov.au/fwo/IDN60801/IDN60801.94843.axf

JavaScript Object Notation format (JSON) in row-major order
http://www.bom.gov.au/fwo/IDN60801/IDN60801.94843.json

Data quality

Most of these data are generated automatically and are frequently updated. Quality checks on data are not normally performed. It is possible for incorrect values to appear. Refer to information at About Latest Weather Observations and please check the disclaimer before using these data.